Terminal Aerodrome Forecast
Issued by NWS Wilmington, OH

Current Version | Previous Version | Text Only | Print | Product List | Glossary Off
Versions: 1 2 3 4 5 6 7 8 9 10 11 12 13 14 15 16

317
FTUS41 KILN 251910 AAA
TAFCMH
TAF AMD
KCMH 251910Z 2519/2618 23008KT P6SM FEW050 SCT250
     FM261100 19005KT P6SM VCSH BKN050 OVC150
     FM261700 19008KT P6SM VCTS BKN025CB=

USA.gov is the U.S. government's official web portal to all federal, state and local government web resources and services.